Time;durP1;ratioP1;P1;durP2;ratioP2;P2;SDS_P1;SDS_P2;PMS_P1;PMS_P2;Temp;Humidity;BMP_temperature;BMP_pressure;BME280_temperature;BME280_humidity;BME280_pressure;Samples;Min_cycle;Max_cycle;Signal;HPM_P1;HPM_P2
2021/10/24 00:03:36;;;;;;;12.35;9.27;;;;;;;3.70;100.00;102589.31;10537681;28;20052;-76
2021/10/24 00:08:38;;;;;;;8.90;7.85;;;;;;;3.56;100.00;102597.66;10578146;28;20043;-76
2021/10/24 00:13:39;;;;;;;12.07;9.10;;;;;;;3.44;100.00;102603.69;10548823;28;20055;-76
2021/10/24 00:18:41;;;;;;;10.07;8.27;;;;;;;3.41;100.00;102593.25;10573017;28;20056;-76
2021/10/24 00:23:44;;;;;;;11.93;9.77;;;;;;;3.35;100.00;102604.69;10561468;28;20047;-76
2021/10/24 00:28:45;;;;;;;13.98;9.27;;;;;;;3.40;100.00;102593.09;10541869;28;20549;-76
2021/10/24 00:33:47;;;;;;;11.82;9.35;;;;;;;3.44;100.00;102588.31;10564903;28;20051;-76
2021/10/24 00:38:54;;;;;;;11.75;9.25;;;;;;;3.36;100.00;102586.00;10545571;28;20522;-76
2021/10/24 00:43:55;;;;;;;11.50;8.75;;;;;;;3.26;100.00;102589.56;10545691;28;20113;-76
2021/10/24 00:48:57;;;;;;;12.60;8.88;;;;;;;3.20;100.00;102589.13;10545240;28;20089;-75
2021/10/24 00:53:59;;;;;;;11.93;8.70;;;;;;;3.08;100.00;102588.22;10559206;28;20059;-75
2021/10/24 00:59:01;;;;;;;13.02;7.55;;;;;;;3.14;100.00;102589.56;10578902;28;20043;-76
2021/10/24 01:04:04;;;;;;;11.07;7.75;;;;;;;3.06;100.00;102577.88;10576156;28;20073;-76
2021/10/24 01:09:11;;;;;;;13.00;9.00;;;;;;;2.98;100.00;102580.66;10571095;28;20048;-76
2021/10/24 01:14:13;;;;;;;13.18;8.38;;;;;;;3.00;100.00;102576.53;10573379;28;20051;-75
2021/10/24 01:19:16;;;;;;;12.93;8.18;;;;;;;2.86;100.00;102573.88;10585363;28;20048;-76
2021/10/24 01:24:17;;;;;;;11.68;8.65;;;;;;;2.83;100.00;102570.19;10575377;27;20059;-76
2021/10/24 01:29:19;;;;;;;12.98;8.35;;;;;;;2.89;100.00;102557.84;10541389;28;20055;-76
2021/10/24 01:34:21;;;;;;;12.20;7.90;;;;;;;2.76;100.00;102560.28;10556864;28;20056;-75
2021/10/24 01:39:23;;;;;;;10.68;7.35;;;;;;;2.74;100.00;102557.63;10543463;28;20508;-75
2021/10/24 01:44:25;;;;;;;13.23;8.77;;;;;;;2.68;100.00;102549.53;10556718;28;20051;-75
2021/10/24 01:49:27;;;;;;;13.85;9.43;;;;;;;2.72;100.00;102545.50;10542832;28;20063;-75
2021/10/24 01:54:28;;;;;;;9.45;8.02;;;;;;;2.69;100.00;102546.19;10562438;28;20062;-76
2021/10/24 01:59:30;;;;;;;11.43;8.30;;;;;;;2.68;100.00;102541.84;10549728;27;20059;-75
2021/10/24 02:04:32;;;;;;;11.32;8.35;;;;;;;2.71;100.00;102543.72;10556450;28;20396;-75
2021/10/24 02:09:33;;;;;;;12.23;8.65;;;;;;;2.71;100.00;102533.50;10578076;28;20052;-75
2021/10/24 02:14:35;;;;;;;12.23;8.60;;;;;;;2.55;100.00;102524.75;10547839;28;20059;-75
2021/10/24 02:19:36;;;;;;;12.25;7.85;;;;;;;2.65;100.00;102521.19;10543194;28;20637;-76
2021/10/24 02:24:38;;;;;;;11.55;9.60;;;;;;;2.60;100.00;102517.38;10547421;28;20055;-75
2021/10/24 02:29:39;;;;;;;16.88;9.88;;;;;;;2.64;100.00;102521.97;10541549;28;20051;-75
2021/10/24 02:34:41;;;;;;;15.52;10.50;;;;;;;2.72;100.00;102509.72;10556771;28;20058;-76
2021/10/24 02:39:42;;;;;;;16.33;10.18;;;;;;;2.66;100.00;102497.41;10567647;28;20055;-76
2021/10/24 02:44:44;;;;;;;21.75;11.48;;;;;;;2.66;100.00;102494.84;10550607;28;20056;-75
2021/10/24 02:49:46;;;;;;;12.85;9.57;;;;;;;2.63;100.00;102494.63;10539393;28;20056;-76
2021/10/24 02:54:47;;;;;;;17.92;10.82;;;;;;;2.69;100.00;102494.19;10562408;28;20043;-75
2021/10/24 02:59:49;;;;;;;15.15;11.27;;;;;;;2.70;100.00;102484.09;10558826;28;20093;-76
2021/10/24 03:04:50;;;;;;;16.55;10.57;;;;;;;2.52;100.00;102475.06;10540447;28;20058;-75
2021/10/24 03:09:52;;;;;;;16.13;10.70;;;;;;;2.51;100.00;102480.97;10539520;28;20052;-75
2021/10/24 03:14:53;;;;;;;15.07;11.15;;;;;;;2.59;100.00;102478.19;10579313;28;20048;-75
2021/10/24 03:19:55;;;;;;;14.63;11.23;;;;;;;2.49;100.00;102472.28;10549711;28;20048;-75
2021/10/24 03:24:57;;;;;;;13.10;10.00;;;;;;;2.51;100.00;102474.19;10546189;28;20044;-75
2021/10/24 03:29:59;;;;;;;17.45;10.77;;;;;;;2.61;100.00;102466.44;10569458;28;20492;-75
2021/10/24 03:35:00;;;;;;;11.10;8.55;;;;;;;2.46;100.00;102477.19;10579007;28;20051;-75
2021/10/24 03:40:02;;;;;;;11.88;9.55;;;;;;;2.35;100.00;102469.63;10543496;28;20052;-75
2021/10/24 03:45:05;;;;;;;11.98;8.95;;;;;;;2.29;100.00;102474.25;10566085;28;20048;-75
2021/10/24 03:50:07;;;;;;;10.60;8.85;;;;;;;2.31;100.00;102480.38;10580739;27;20062;-75
2021/10/24 03:55:12;;;;;;;9.38;7.70;;;;;;;2.43;100.00;102470.16;10540539;28;20044;-75
2021/10/24 04:00:13;;;;;;;12.60;8.90;;;;;;;2.31;100.00;102471.81;10540643;28;20052;-75
2021/10/24 04:05:15;;;;;;;13.90;9.07;;;;;;;2.24;100.00;102470.47;10579658;28;20393;-75
2021/10/24 04:10:18;;;;;;;14.00;9.55;;;;;;;2.26;100.00;102475.69;10576748;28;20495;-75
2021/10/24 04:15:21;;;;;;;13.25;9.18;;;;;;;2.17;100.00;102467.38;10549323;28;20453;-75
2021/10/24 04:20:22;;;;;;;14.80;9.15;;;;;;;2.24;100.00;102462.81;10564561;28;20168;-75
2021/10/24 04:25:27;;;;;;;14.85;10.32;;;;;;;2.20;100.00;102458.25;10565254;28;20051;-75
2021/10/24 04:30:28;;;;;;;15.02;9.77;;;;;;;2.28;100.00;102457.19;10543655;28;20052;-75
2021/10/24 04:35:30;;;;;;;18.58;10.07;;;;;;;2.27;100.00;102463.06;10536569;28;20044;-75
2021/10/24 04:40:31;;;;;;;11.32;7.63;;;;;;;2.12;100.00;102467.00;10539479;28;20051;-75
2021/10/24 04:45:35;;;;;;;10.23;7.07;;;;;;;2.16;100.00;102458.81;10537649;28;20048;-76
2021/10/24 04:50:36;;;;;;;10.30;6.95;;;;;;;2.09;100.00;102454.88;10535590;28;20056;-75
2021/10/24 04:55:38;;;;;;;10.30;7.10;;;;;;;1.97;100.00;102456.53;10537846;28;20055;-75
2021/10/24 05:00:40;;;;;;;13.30;8.38;;;;;;;1.75;100.00;102459.09;10579450;28;20044;-75
2021/10/24 05:05:41;;;;;;;11.43;7.80;;;;;;;1.94;100.00;102442.66;10582632;28;20047;-76
2021/10/24 05:10:43;;;;;;;9.13;7.25;;;;;;;1.82;100.00;102433.31;10566458;28;20048;-75
2021/10/24 05:15:44;;;;;;;11.82;8.48;;;;;;;1.71;100.00;102428.19;10585087;28;20055;-75
2021/10/24 05:20:46;;;;;;;11.57;7.90;;;;;;;1.74;100.00;102434.38;10550884;28;20465;-75
2021/10/24 05:25:47;;;;;;;10.77;7.28;;;;;;;1.71;100.00;102417.97;10562560;28;20055;-75
2021/10/24 05:30:49;;;;;;;11.18;7.53;;;;;;;1.63;100.00;102421.59;10541314;28;20056;-75
2021/10/24 05:35:53;;;;;;;9.20;7.15;;;;;;;1.56;100.00;102420.22;10582765;28;20486;-75
2021/10/24 05:40:55;;;;;;;9.18;7.63;;;;;;;1.61;100.00;102415.50;10583461;28;20048;-75
2021/10/24 05:45:56;;;;;;;8.38;7.15;;;;;;;1.39;100.00;102408.75;10582950;28;20096;-75
2021/10/24 05:50:59;;;;;;;10.52;7.30;;;;;;;1.46;100.00;102410.97;10560752;28;20056;-75
2021/10/24 05:56:00;;;;;;;9.93;6.88;;;;;;;1.46;100.00;102408.44;10581992;28;20099;-75
2021/10/24 06:01:02;;;;;;;10.10;6.97;;;;;;;1.35;100.00;102403.28;10548877;28;20059;-75
2021/10/24 06:06:04;;;;;;;10.48;7.95;;;;;;;1.33;100.00;102398.97;10565152;28;20467;-75
2021/10/24 06:11:19;;;;;;;12.15;7.03;;;;;;;1.32;100.00;102397.19;10546949;28;20044;-75
2021/10/24 06:16:21;;;;;;;13.13;8.18;;;;;;;1.37;100.00;102401.75;10559204;28;20047;-75
2021/10/24 06:21:23;;;;;;;10.80;7.75;;;;;;;1.34;100.00;102387.09;10564167;28;20039;-76
2021/10/24 06:26:24;;;;;;;9.85;7.50;;;;;;;1.38;100.00;102383.13;10561611;28;20126;-75
2021/10/24 06:31:26;;;;;;;11.45;7.28;;;;;;;1.36;100.00;102379.56;10541431;28;20055;-75
2021/10/24 06:36:28;;;;;;;12.82;8.80;;;;;;;1.57;100.00;102379.53;10546599;28;20089;-75
2021/10/24 06:41:29;;;;;;;13.20;9.98;;;;;;;1.66;100.00;102361.50;10560830;28;20051;-76
2021/10/24 06:46:31;;;;;;;14.35;8.93;;;;;;;2.00;100.00;102354.69;10579886;28;20050;-76
2021/10/24 06:51:32;;;;;;;11.43;8.90;;;;;;;1.94;100.00;102359.34;10546467;28;20627;-76
2021/10/24 06:56:34;;;;;;;15.38;9.45;;;;;;;2.12;100.00;102350.47;10578338;28;20513;-76
2021/10/24 07:01:36;;;;;;;22.38;10.85;;;;;;;2.70;100.00;102353.78;10547356;28;20075;-75
2021/10/24 07:06:37;;;;;;;20.52;10.65;;;;;;;2.89;100.00;102355.97;10549985;28;20074;-76
2021/10/24 07:11:39;;;;;;;17.85;10.75;;;;;;;3.13;100.00;102359.38;10539853;28;20043;-76
2021/10/24 07:16:41;;;;;;;18.02;12.38;;;;;;;3.29;100.00;102351.06;10570298;28;20485;-76
2021/10/24 07:21:43;;;;;;;24.02;13.98;;;;;;;3.55;100.00;102355.41;10529980;28;20133;-76
2021/10/24 07:26:44;;;;;;;27.42;17.40;;;;;;;3.57;100.00;102346.13;10537388;28;20502;-76
2021/10/24 07:31:46;;;;;;;28.75;20.02;;;;;;;3.55;100.00;102338.38;10566904;28;20047;-76
2021/10/24 07:36:47;;;;;;;49.40;31.83;;;;;;;3.63;100.00;102341.44;10556662;28;20117;-76
2021/10/24 07:41:49;;;;;;;36.90;26.52;;;;;;;3.77;100.00;102342.38;10539659;28;20560;-76
2021/10/24 07:46:54;;;;;;;42.08;28.17;;;;;;;3.49;100.00;102340.50;10545276;28;20055;-76
2021/10/24 07:51:58;;;;;;;53.63;33.35;;;;;;;3.98;100.00;102334.44;10551673;28;20055;-76
2021/10/24 07:57:00;;;;;;;47.55;30.95;;;;;;;4.05;100.00;102340.84;10536011;28;20514;-76
2021/10/24 08:02:02;;;;;;;46.33;26.65;;;;;;;4.05;100.00;102337.41;10563652;28;20097;-76
2021/10/24 08:07:05;;;;;;;49.15;30.42;;;;;;;4.25;100.00;102325.09;10577924;28;20048;-76
2021/10/24 08:12:07;;;;;;;52.47;29.70;;;;;;;4.39;100.00;102317.41;10577781;28;20050;-76
2021/10/24 08:17:08;;;;;;;57.92;35.88;;;;;;;4.49;100.00;102323.22;10568324;28;20040;-76
2021/10/24 08:22:10;;;;;;;55.50;32.45;;;;;;;4.68;100.00;102308.97;10536187;28;20052;-76
2021/10/24 08:27:12;;;;;;;75.43;47.10;;;;;;;4.80;100.00;102309.72;10552971;28;20047;-76
2021/10/24 08:32:13;;;;;;;64.07;35.38;;;;;;;4.95;100.00;102297.88;10567046;28;20051;-76
2021/10/24 08:37:15;;;;;;;70.65;38.38;;;;;;;5.04;100.00;102293.28;10535804;28;20044;-76
2021/10/24 08:42:16;;;;;;;61.00;34.92;;;;;;;5.10;100.00;102292.75;10550912;28;20048;-76
2021/10/24 08:47:18;;;;;;;70.05;38.20;;;;;;;5.31;100.00;102288.91;10564271;28;20044;-77
2021/10/24 08:52:21;;;;;;;82.85;47.55;;;;;;;5.44;100.00;102281.94;10561895;28;20461;-76
2021/10/24 08:57:24;;;;;;;69.38;36.90;;;;;;;5.81;100.00;102284.97;10563360;28;20047;-76
2021/10/24 09:02:56;;;;;;;69.65;39.00;;;;;;;6.11;100.00;102273.00;10579279;28;20055;-76
2021/10/24 09:07:58;;;;;;;63.17;33.40;;;;;;;5.96;100.00;102273.06;10539908;28;20052;-74
2021/10/24 09:13:03;;;;;;;60.55;34.70;;;;;;;5.95;100.00;102268.69;10572907;28;20078;-74
2021/10/24 09:18:12;;;;;;;54.42;29.63;;;;;;;6.50;100.00;102263.16;10563120;28;20311;-74
2021/10/24 09:23:30;;;;;;;56.42;29.10;;;;;;;6.69;100.00;102254.75;10537646;28;20051;-74
2021/10/24 09:28:31;;;;;;;50.83;28.35;;;;;;;6.58;100.00;102249.94;10554359;28;20455;-74
2021/10/24 09:33:44;;;;;;;157.27;85.20;;;;;;;6.51;100.00;102249.50;10581271;28;20056;-74
2021/10/24 09:38:46;;;;;;;50.30;27.58;;;;;;;6.89;100.00;102239.56;10568202;28;20043;-73
2021/10/24 09:43:47;;;;;;;49.65;28.92;;;;;;;6.83;100.00;102235.78;10578578;28;20065;-74
2021/10/24 09:48:52;;;;;;;45.95;24.58;;;;;;;7.01;100.00;102229.03;10540274;28;20048;-74
2021/10/24 09:53:56;;;;;;;38.30;22.55;;;;;;;7.55;100.00;102219.75;10571077;28;20054;-75
2021/10/24 09:58:58;;;;;;;38.95;22.88;;;;;;;7.43;100.00;102213.97;10578364;28;20081;-74
2021/10/24 10:04:00;;;;;;;35.00;20.27;;;;;;;7.84;100.00;102204.84;10562092;28;20063;-74
2021/10/24 10:09:02;;;;;;;43.20;23.13;;;;;;;7.64;100.00;102198.69;10551820;28;20453;-74
2021/10/24 10:14:08;;;;;;;35.53;19.60;;;;;;;8.36;100.00;102197.88;10539848;28;20499;-73
2021/10/24 10:19:12;;;;;;;31.13;18.20;;;;;;;8.66;95.14;102192.31;10542659;28;20370;-74
2021/10/24 10:24:35;;;;;;;36.85;21.02;;;;;;;8.36;100.00;102199.56;10542426;28;20217;-73
2021/10/24 10:29:53;;;;;;;22.55;17.30;;;;;;;9.36;91.04;102189.28;10559888;28;20105;-74
2021/10/24 10:34:57;;;;;;;24.38;14.70;;;;;;;9.52;87.13;102197.72;10538579;28;20048;-74
2021/10/24 10:39:59;;;;;;;25.00;15.20;;;;;;;9.80;86.52;102185.94;10539691;28;20044;-73
2021/10/24 10:45:16;;;;;;;23.23;13.75;;;;;;;10.69;80.36;102181.56;10552061;28;20052;-74
2021/10/24 10:50:30;;;;;;;17.08;11.68;;;;;;;11.33;78.30;102176.88;10565617;28;20051;-73
2021/10/24 10:56:02;;;;;;;15.52;9.77;;;;;;;10.64;78.23;102177.94;10553446;28;20056;-73
2021/10/24 11:01:19;;;;;;;16.67;8.80;;;;;;;10.99;76.61;102177.47;10511377;28;20499;-73
2021/10/24 11:06:23;;;;;;;;;;;;;;;11.21;72.72;102171.31;10566679;28;20043;-74
2021/10/24 11:11:44;;;;;;;14.05;9.38;;;;;;;10.96;76.86;102169.59;10567652;28;19920;-73
2021/10/24 11:16:49;;;;;;;10.60;7.90;;;;;;;11.36;72.11;102160.59;10551060;28;20067;-73
2021/10/24 11:21:53;;;;;;;10.43;7.55;;;;;;;10.99;74.23;102168.81;10568459;28;20047;-73
2021/10/24 11:26:58;;;;;;;11.77;8.98;;;;;;;11.62;72.60;102161.41;10551889;28;20540;-74
2021/10/24 11:32:26;;;;;;;10.75;8.38;;;;;;;11.96;71.45;102147.81;10554289;28;20476;-73
2021/10/24 11:37:44;;;;;;;14.18;8.18;;;;;;;11.79;73.29;102143.78;10557597;28;20044;-74
2021/10/24 11:42:56;;;;;;;14.60;9.23;;;;;;;12.67;75.22;102125.63;10560453;28;20043;-73
2021/10/24 11:48:08;;;;;;;9.40;7.53;;;;;;;12.14;71.41;102125.03;10549587;28;20075;-74
2021/10/24 11:53:11;;;;;;;12.85;8.68;;;;;;;11.87;70.53;102119.91;10559307;28;20052;-74
2021/10/24 12:03:34;;;;;;;12.77;8.68;;;;;;;11.86;72.51;102118.16;10553188;28;20498;-74
2021/10/24 12:08:47;;;;;;;15.52;8.75;;;;;;;11.62;73.62;102119.94;10557958;28;20105;-74
2021/10/24 12:13:49;;;;;;;9.98;8.07;;;;;;;11.57;74.58;102100.75;10546234;28;20047;-73
2021/10/24 12:19:06;;;;;;;9.27;6.80;;;;;;;11.64;70.15;102108.78;10551640;28;20067;-76
2021/10/24 12:24:23;;;;;;;12.43;7.35;;;;;;;11.41;73.31;102108.09;10558036;28;20050;-74
2021/10/24 12:29:24;;;;;;;13.80;9.27;;;;;;;11.67;74.80;102100.22;10568813;28;20495;-74
2021/10/24 12:34:26;;;;;;;12.80;8.50;;;;;;;11.56;72.65;102096.41;10568882;28;20302;-74
2021/10/24 12:39:27;;;;;;;12.68;8.25;;;;;;;11.68;73.16;102083.81;10538850;28;20496;-73
2021/10/24 12:44:33;;;;;;;12.20;8.35;;;;;;;11.34;73.33;102085.38;10554673;28;20051;-74
2021/10/24 12:49:36;;;;;;;13.67;9.00;;;;;;;11.48;74.88;102077.16;10561301;28;20056;-75
2021/10/24 12:54:38;;;;;;;12.48;8.20;;;;;;;11.55;73.63;102074.81;10553245;28;20536;-76
2021/10/24 12:59:39;;;;;;;10.98;9.18;;;;;;;11.54;76.02;102067.00;10559923;28;20055;-75
2021/10/24 13:04:43;;;;;;;13.88;8.70;;;;;;;11.56;73.11;102065.31;10555332;28;20055;-76
2021/10/24 13:09:44;;;;;;;9.40;7.90;;;;;;;11.67;70.87;102053.56;10550396;28;20050;-75
2021/10/24 13:14:46;;;;;;;16.50;9.23;;;;;;;11.77;71.85;102044.34;10557648;28;20119;-74
2021/10/24 13:19:47;;;;;;;11.18;8.52;;;;;;;11.58;76.36;102043.81;10546440;28;20044;-75
2021/10/24 13:24:49;;;;;;;15.18;8.48;;;;;;;11.78;73.88;102027.97;10543764;28;20510;-75
2021/10/24 13:29:51;;;;;;;13.45;8.02;;;;;;;11.66;73.54;102020.69;10562185;28;20093;-75
2021/10/24 13:34:52;;;;;;;11.18;7.43;;;;;;;11.82;70.10;102007.38;10553731;28;20500;-81
2021/10/24 13:39:54;;;;;;;8.27;7.03;;;;;;;11.84;71.00;102007.41;10563731;28;20067;-80
2021/10/24 13:44:55;;;;;;;9.27;6.57;;;;;;;11.58;73.68;101998.88;10568772;28;20052;-80
2021/10/24 13:49:57;;;;;;;10.10;6.38;;;;;;;11.75;73.16;101986.41;10572389;28;20079;-80
2021/10/24 13:54:58;;;;;;;11.02;7.13;;;;;;;11.70;71.88;101973.31;10561721;28;20561;-82
2021/10/24 14:00:01;;;;;;;11.23;7.20;;;;;;;11.61;72.76;101973.03;10553776;28;20079;-81
2021/10/24 14:05:04;;;;;;;11.70;7.38;;;;;;;11.61;72.31;101952.28;10567699;28;20055;-81
2021/10/24 14:10:07;;;;;;;22.38;14.88;;;;;;;11.51;73.63;101948.56;10546437;28;20054;-82
2021/10/24 14:15:10;;;;;;;39.55;24.73;;;;;;;11.48;71.50;101943.28;10553332;28;20056;-81
2021/10/24 14:20:11;;;;;;;9.77;8.50;;;;;;;11.38;73.67;101942.13;10574864;28;20067;-82
2021/10/24 14:25:14;;;;;;;10.77;7.95;;;;;;;11.28;74.02;101934.94;10547001;28;20419;-81
2021/10/24 14:30:16;;;;;;;12.40;8.52;;;;;;;11.32;73.46;101934.19;10572182;28;20055;-81
2021/10/24 14:35:17;;;;;;;12.32;8.20;;;;;;;11.03;77.42;101928.16;10581567;28;20065;-81
2021/10/24 14:40:19;;;;;;;11.90;8.13;;;;;;;11.31;74.67;101924.66;10544494;28;20044;-81
2021/10/24 14:45:22;;;;;;;9.95;8.13;;;;;;;11.27;73.89;101932.31;10558652;28;20048;-81
2021/10/24 14:50:24;;;;;;;12.15;8.75;;;;;;;11.18;74.83;101924.28;10560294;28;20047;-81
2021/10/24 14:55:26;;;;;;;10.90;7.70;;;;;;;11.34;73.29;101924.75;10554648;28;20484;-81
2021/10/24 15:00:28;;;;;;;16.48;9.15;;;;;;;11.00;78.07;101920.28;10554265;28;20052;-81
2021/10/24 15:05:30;;;;;;;9.45;7.18;;;;;;;10.89;77.58;101913.88;10554304;28;20484;-81
2021/10/24 15:10:31;;;;;;;13.15;7.85;;;;;;;11.01;76.19;101913.41;10560320;28;20767;-81
2021/10/24 15:15:47;;;;;;;12.98;9.65;;;;;;;10.95;76.56;101913.19;10577669;28;20055;-81
2021/10/24 15:26:10;;;;;;;12.18;8.75;;;;;;;10.73;77.68;101889.25;10569670;28;20426;-81
2021/10/24 15:31:13;;;;;;;22.55;14.02;;;;;;;10.75;78.23;101884.13;10558103;28;20400;-80
2021/10/24 15:36:14;;;;;;;15.55;8.82;;;;;;;10.57;79.24;101869.78;10550908;28;20052;-81
2021/10/24 15:41:16;;;;;;;31.55;18.00;;;;;;;10.43;79.25;101863.28;10567672;28;20067;-81
2021/10/24 15:46:23;;;;;;;11.30;8.75;;;;;;;10.35;78.90;101864.75;10571899;28;20055;-81
2021/10/24 15:51:25;;;;;;;12.95;8.32;;;;;;;10.25;78.58;101857.53;10574217;28;20059;-81
2021/10/24 15:56:27;;;;;;;10.38;8.32;;;;;;;9.94;81.39;101846.16;10570390;28;20047;-81
2021/10/24 16:01:29;;;;;;;12.80;8.80;;;;;;;10.02;79.54;101852.44;10550275;28;20044;-81
2021/10/24 16:06:31;;;;;;;16.98;10.68;;;;;;;10.02;79.22;101851.56;10575611;28;20047;-81
2021/10/24 16:11:32;;;;;;;14.00;7.93;;;;;;;9.74;82.14;101860.09;10569997;28;20044;-81
2021/10/24 16:16:34;;;;;;;10.68;8.60;;;;;;;9.48;83.50;101852.31;10572959;28;20055;-80
2021/10/24 16:21:36;;;;;;;38.28;24.20;;;;;;;9.03;88.36;101855.00;10557850;28;20047;-81
2021/10/24 16:26:37;;;;;;;17.10;11.68;;;;;;;8.84;89.98;101843.91;10564382;28;20055;-81
2021/10/24 16:31:39;;;;;;;13.93;10.10;;;;;;;8.73;91.29;101835.75;10571613;28;20051;-81
2021/10/24 16:36:41;;;;;;;13.75;10.38;;;;;;;8.47;92.96;101848.53;10561479;28;20051;-82
2021/10/24 16:41:42;;;;;;;12.82;9.25;;;;;;;8.48;93.44;101860.59;10565722;28;20113;-80
2021/10/24 16:46:44;;;;;;;25.23;14.70;;;;;;;8.10;97.17;101856.44;10566758;28;20105;-80
2021/10/24 16:51:46;;;;;;;50.75;31.65;;;;;;;8.04;97.75;101847.56;10566005;28;20055;-80
2021/10/24 16:56:48;;;;;;;30.23;20.17;;;;;;;7.78;98.34;101839.66;10551728;28;20055;-80
2021/10/24 17:01:51;;;;;;;23.67;15.55;;;;;;;7.53;100.00;101840.28;10583125;28;20060;-80
2021/10/24 17:06:53;;;;;;;18.17;12.43;;;;;;;7.50;100.00;101836.72;10586925;28;20122;-80
2021/10/24 17:11:56;;;;;;;18.42;13.27;;;;;;;7.42;100.00;101838.94;10573520;28;20051;-80
2021/10/24 17:16:57;;;;;;;20.63;13.63;;;;;;;7.17;100.00;101848.16;10564804;28;20052;-81
2021/10/24 17:22:00;;;;;;;20.02;12.82;;;;;;;7.00;100.00;101851.66;10570434;28;20054;-81
2021/10/24 17:27:01;;;;;;;15.65;11.20;;;;;;;6.96;100.00;101849.75;10582296;28;20040;-81
2021/10/24 17:32:04;;;;;;;15.73;11.50;;;;;;;6.71;100.00;101855.47;10579697;28;20505;-81
2021/10/24 17:37:06;;;;;;;32.35;17.33;;;;;;;6.48;100.00;101856.97;10580830;28;20085;-81
2021/10/24 17:42:08;;;;;;;33.78;18.67;;;;;;;6.41;100.00;101846.28;10581447;28;20128;-81
2021/10/24 17:47:10;;;;;;;37.63;20.90;;;;;;;6.27;100.00;101843.94;10580890;28;20043;-81
2021/10/24 17:52:13;;;;;;;41.92;23.70;;;;;;;6.19;100.00;101831.56;10577914;28;20061;-82
2021/10/24 17:57:15;;;;;;;30.40;19.10;;;;;;;6.02;100.00;101828.16;10573917;28;20047;-81
2021/10/24 18:02:17;;;;;;;30.33;19.60;;;;;;;6.15;100.00;101820.25;10573873;28;20047;-81
2021/10/24 18:07:18;;;;;;;29.02;17.35;;;;;;;6.07;100.00;101822.44;10572885;28;20051;-81
2021/10/24 18:12:20;;;;;;;19.10;13.05;;;;;;;5.97;100.00;101824.47;10566480;28;20086;-81
2021/10/24 18:17:22;;;;;;;16.45;11.88;;;;;;;5.93;100.00;101817.44;10580423;28;20166;-81
2021/10/24 18:22:23;;;;;;;25.42;13.45;;;;;;;5.91;100.00;101813.88;10577284;28;20134;-81
2021/10/24 18:27:25;;;;;;;18.42;13.70;;;;;;;6.21;100.00;101812.81;10577776;28;20047;-80
2021/10/24 18:32:29;;;;;;;25.55;14.70;;;;;;;5.86;100.00;101808.50;10565858;28;20539;-81
2021/10/24 18:37:31;;;;;;;21.25;15.05;;;;;;;5.84;100.00;101815.25;10563203;28;20039;-80
2021/10/24 18:42:37;;;;;;;23.80;17.35;;;;;;;5.80;100.00;101796.25;10561869;28;20128;-80
2021/10/24 18:47:40;;;;;;;21.55;16.85;;;;;;;5.70;100.00;101794.03;10560100;28;20128;-82
2021/10/24 18:52:42;;;;;;;22.50;15.73;;;;;;;5.46;100.00;101801.38;10565781;28;20433;-81
2021/10/24 18:57:44;;;;;;;23.23;16.13;;;;;;;5.30;100.00;101791.13;10573691;28;20464;-81
2021/10/24 19:02:45;;;;;;;16.58;12.73;;;;;;;5.19;100.00;101792.25;10539622;28;20069;-81
2021/10/24 19:07:49;;;;;;;13.20;9.68;;;;;;;5.09;100.00;101802.84;10547178;28;20479;-80
2021/10/24 19:12:50;;;;;;;15.55;11.05;;;;;;;4.97;100.00;101796.25;10557879;28;20051;-80
2021/10/24 19:17:52;;;;;;;19.20;10.52;;;;;;;4.78;100.00;101796.97;10562779;28;20051;-81
2021/10/24 19:22:53;;;;;;;14.52;11.23;;;;;;;4.70;100.00;101800.78;10575123;28;20054;-80
2021/10/24 19:27:55;;;;;;;20.63;13.95;;;;;;;4.68;100.00;101792.16;10542949;28;20044;-81
2021/10/24 19:32:57;;;;;;;17.08;12.52;;;;;;;4.58;100.00;101795.00;10535966;28;20056;-80
2021/10/24 19:37:59;;;;;;;12.00;9.65;;;;;;;4.48;100.00;101792.75;10537387;28;20488;-80
2021/10/24 19:43:00;;;;;;;17.73;11.75;;;;;;;4.39;100.00;101792.25;10535619;28;20109;-80
2021/10/24 19:48:02;;;;;;;20.17;13.02;;;;;;;4.43;100.00;101792.53;10536858;28;20097;-80
2021/10/24 19:53:04;;;;;;;20.60;14.00;;;;;;;4.51;100.00;101790.38;10535270;28;20064;-80
2021/10/24 19:58:07;;;;;;;19.23;13.75;;;;;;;4.69;100.00;101790.47;10534956;28;20044;-81
2021/10/24 20:03:10;;;;;;;16.55;12.77;;;;;;;4.64;100.00;101786.78;10546231;28;20054;-81
2021/10/24 20:08:12;;;;;;;21.00;13.43;;;;;;;4.72;100.00;101790.66;10578799;28;20090;-80
2021/10/24 20:13:14;;;;;;;16.65;12.15;;;;;;;4.55;100.00;101794.88;10577692;28;20404;-80
2021/10/24 20:18:16;;;;;;;18.75;12.38;;;;;;;4.86;100.00;101783.69;10561846;28;20040;-81
2021/10/24 20:23:17;;;;;;;21.23;14.23;;;;;;;5.51;100.00;101781.97;10546551;28;20152;-80
2021/10/24 20:28:20;;;;;;;21.63;15.13;;;;;;;6.46;100.00;101776.31;10541080;28;20059;-81
2021/10/24 20:33:24;;;;;;;32.38;17.35;;;;;;;6.74;100.00;101769.84;10536086;28;20084;-81
2021/10/24 20:38:26;;;;;;;28.20;17.95;;;;;;;6.48;100.00;101781.53;10544905;28;20044;-80
2021/10/24 20:43:28;;;;;;;28.10;17.75;;;;;;;6.67;100.00;101785.81;10543025;28;20056;-80
2021/10/24 20:48:29;;;;;;;24.95;16.35;;;;;;;6.60;100.00;101780.41;10542862;28;20456;-80
2021/10/24 20:53:31;;;;;;;24.38;17.05;;;;;;;6.52;100.00;101786.91;10542346;28;20044;-80
2021/10/24 20:58:33;;;;;;;28.05;17.42;;;;;;;6.62;100.00;101789.06;10542183;28;20050;-80
2021/10/24 21:03:34;;;;;;;25.98;17.30;;;;;;;6.28;100.00;101807.16;10558072;28;20108;-80
2021/10/24 21:08:37;;;;;;;26.83;17.17;;;;;;;6.21;100.00;101799.97;10585533;28;20071;-80
2021/10/24 21:13:38;;;;;;;24.73;16.65;;;;;;;5.57;100.00;101789.09;10585007;28;20062;-80
2021/10/24 21:18:40;;;;;;;26.27;17.23;;;;;;;5.46;100.00;101796.25;10563575;28;20102;-80
2021/10/24 21:23:42;;;;;;;24.40;16.58;;;;;;;5.39;100.00;101791.63;10542800;28;20055;-80
2021/10/24 21:28:44;;;;;;;19.77;14.95;;;;;;;5.23;100.00;101794.19;10548949;28;20052;-78
2021/10/24 21:33:45;;;;;;;31.95;16.95;;;;;;;5.56;100.00;101792.47;10541103;28;20059;-77
2021/10/24 21:38:47;;;;;;;24.27;15.45;;;;;;;5.54;100.00;101804.31;10540422;28;20066;-78
2021/10/24 21:43:49;;;;;;;18.90;13.73;;;;;;;5.50;100.00;101787.91;10540526;28;20058;-73
2021/10/24 21:48:52;;;;;;;19.73;13.50;;;;;;;5.16;100.00;101794.66;10538708;28;20522;-72
2021/10/24 21:53:53;;;;;;;20.70;14.13;;;;;;;5.05;100.00;101797.56;10539946;28;20455;-72
2021/10/24 21:58:55;;;;;;;20.77;14.52;;;;;;;4.94;100.00;101788.44;10539799;28;20055;-72
2021/10/24 22:03:56;;;;;;;22.05;13.90;;;;;;;4.74;100.00;101800.16;10558252;28;20100;-72
2021/10/24 22:08:58;;;;;;;19.45;14.80;;;;;;;4.73;100.00;101788.16;10581518;28;20043;-72
2021/10/24 22:13:59;;;;;;;20.77;13.77;;;;;;;4.65;100.00;101781.75;10582638;28;20047;-72
2021/10/24 22:19:01;;;;;;;17.40;13.70;;;;;;;4.62;100.00;101788.38;10578922;28;20056;-72
2021/10/24 22:24:03;;;;;;;16.67;13.50;;;;;;;4.49;100.00;101791.97;10579914;28;20101;-72
2021/10/24 22:29:05;;;;;;;21.98;16.25;;;;;;;4.38;100.00;101776.00;10539679;28;20351;-72
2021/10/24 22:34:08;;;;;;;21.92;15.13;;;;;;;4.61;100.00;101782.38;10539705;28;20544;-72
2021/10/24 22:39:09;;;;;;;24.25;16.30;;;;;;;5.25;100.00;101772.06;10539850;28;20048;-72
2021/10/24 22:44:11;;;;;;;22.33;16.55;;;;;;;5.04;100.00;101771.81;10537940;28;20155;-72
2021/10/24 22:49:13;;;;;;;25.02;17.13;;;;;;;5.17;100.00;101779.38;10537768;28;20056;-72
2021/10/24 22:54:16;;;;;;;24.23;17.42;;;;;;;5.35;100.00;101774.28;10537655;28;20056;-72
2021/10/24 22:59:17;;;;;;;24.80;16.35;;;;;;;5.08;100.00;101775.44;10537240;28;20048;-72
2021/10/24 23:04:19;;;;;;;23.30;16.02;;;;;;;5.11;100.00;101773.06;10558129;28;20067;-72